Oakdale, Iowa
Current Conditions -  °F | °C
As of 4:52 PM on Friday 31 Oct 2014 (Local Time) from KIOW Reporting Station
Clear Clear  
Wind Chill: 34°   Ceiling: Unl
Heat Index: 42°   Visibility: 10mi
Dew Point: 20°   Wind: 16mph
Humidity: 41%   Direction: 10°N
Pressure: 30.42"   Gusts: 29mph
Location:  41.71°N, 91.6°W
Report Text: KIOW 312152Z AUTO 01014G25KT 10SM CLR 06/M07 A3042 RMK AO2 SLP307 T00561067
Loading
Personal Weather Stations






























Interactive Weather Map
Tropical Storm Tracking
New forecast layout! Learn more

10-Day Weather Forecast

Advertisements
Track Severe Weather on mobile